sensor_id;sensor_type;location;lat;lon;timestamp;P1;durP1;ratioP1;P2;durP2;ratioP2
20000;SDS011;10161;41.188;-8.642;2024-01-15T00:01:07;78.67;;;62.90;;
20000;SDS011;10161;41.188;-8.642;2024-01-15T00:03:34;77.30;;;63.17;;
20000;SDS011;10161;41.188;-8.642;2024-01-15T00:06:01;75.00;;;64.30;;
20000;SDS011;10161;41.188;-8.642;2024-01-15T00:08:28;78.40;;;65.00;;
20000;SDS011;10161;41.188;-8.642;2024-01-15T00:10:56;78.70;;;65.20;;
20000;SDS011;10161;41.188;-8.642;2024-01-15T00:13:23;81.33;;;67.17;;
20000;SDS011;10161;41.188;-8.642;2024-01-15T00:15:50;82.47;;;66.97;;
20000;SDS011;10161;41.188;-8.642;2024-01-15T00:18:17;85.33;;;70.33;;
20000;SDS011;10161;41.188;-8.642;2024-01-15T00:20:44;82.10;;;70.00;;
20000;SDS011;10161;41.188;-8.642;2024-01-15T00:23:11;86.80;;;71.60;;
20000;SDS011;10161;41.188;-8.642;2024-01-15T00:25:38;87.30;;;73.83;;
20000;SDS011;10161;41.188;-8.642;2024-01-15T00:28:06;92.40;;;75.33;;
20000;SDS011;10161;41.188;-8.642;2024-01-15T00:30:33;91.30;;;73.60;;
20000;SDS011;10161;41.188;-8.642;2024-01-15T00:33:00;94.30;;;75.97;;
20000;SDS011;10161;41.188;-8.642;2024-01-15T00:35:27;91.90;;;75.87;;
20000;SDS011;10161;41.188;-8.642;2024-01-15T00:37:54;90.23;;;76.57;;
20000;SDS011;10161;41.188;-8.642;2024-01-15T00:40:21;90.57;;;74.97;;
20000;SDS011;10161;41.188;-8.642;2024-01-15T00:42:48;90.60;;;76.47;;
20000;SDS011;10161;41.188;-8.642;2024-01-15T00:45:16;94.00;;;77.50;;
20000;SDS011;10161;41.188;-8.642;2024-01-15T00:47:43;103.60;;;83.57;;
20000;SDS011;10161;41.188;-8.642;2024-01-15T00:50:10;98.10;;;81.10;;
20000;SDS011;10161;41.188;-8.642;2024-01-15T00:52:37;92.43;;;76.80;;
20000;SDS011;10161;41.188;-8.642;2024-01-15T00:55:04;99.20;;;82.00;;
20000;SDS011;10161;41.188;-8.642;2024-01-15T00:57:32;101.60;;;82.83;;
20000;SDS011;10161;41.188;-8.642;2024-01-15T00:59:59;105.33;;;85.93;;
20000;SDS011;10161;41.188;-8.642;2024-01-15T01:02:27;105.63;;;86.70;;
20000;SDS011;10161;41.188;-8.642;2024-01-15T01:04:54;101.97;;;84.00;;
20000;SDS011;10161;41.188;-8.642;2024-01-15T01:07:21;103.30;;;86.63;;
20000;SDS011;10161;41.188;-8.642;2024-01-15T01:09:48;100.37;;;84.60;;
20000;SDS011;10161;41.188;-8.642;2024-01-15T01:12:16;107.40;;;85.07;;
20000;SDS011;10161;41.188;-8.642;2024-01-15T01:14:43;104.60;;;86.47;;
20000;SDS011;10161;41.188;-8.642;2024-01-15T01:17:10;102.57;;;87.07;;
20000;SDS011;10161;41.188;-8.642;2024-01-15T01:19:38;103.93;;;87.17;;
20000;SDS011;10161;41.188;-8.642;2024-01-15T01:22:05;103.70;;;87.13;;
20000;SDS011;10161;41.188;-8.642;2024-01-15T01:24:32;106.60;;;89.10;;
20000;SDS011;10161;41.188;-8.642;2024-01-15T01:26:59;106.73;;;90.37;;
20000;SDS011;10161;41.188;-8.642;2024-01-15T01:29:26;107.23;;;89.00;;
20000;SDS011;10161;41.188;-8.642;2024-01-15T01:31:53;109.53;;;90.27;;
20000;SDS011;10161;41.188;-8.642;2024-01-15T01:34:21;106.33;;;86.03;;
20000;SDS011;10161;41.188;-8.642;2024-01-15T01:36:50;110.20;;;91.17;;
20000;SDS011;10161;41.188;-8.642;2024-01-15T01:39:19;111.30;;;90.90;;
20000;SDS011;10161;41.188;-8.642;2024-01-15T01:41:46;115.77;;;94.27;;
20000;SDS011;10161;41.188;-8.642;2024-01-15T01:44:13;110.80;;;92.33;;
20000;SDS011;10161;41.188;-8.642;2024-01-15T01:46:40;113.90;;;95.53;;
20000;SDS011;10161;41.188;-8.642;2024-01-15T01:49:08;110.60;;;94.90;;
20000;SDS011;10161;41.188;-8.642;2024-01-15T01:51:35;114.57;;;95.13;;
20000;SDS011;10161;41.188;-8.642;2024-01-15T01:54:06;112.93;;;95.00;;
20000;SDS011;10161;41.188;-8.642;2024-01-15T01:56:34;118.83;;;97.83;;
20000;SDS011;10161;41.188;-8.642;2024-01-15T01:59:02;112.10;;;95.97;;
20000;SDS011;10161;41.188;-8.642;2024-01-15T02:01:29;115.73;;;94.97;;
20000;SDS011;10161;41.188;-8.642;2024-01-15T02:03:56;119.30;;;98.90;;
20000;SDS011;10161;41.188;-8.642;2024-01-15T02:06:23;118.20;;;100.77;;
20000;SDS011;10161;41.188;-8.642;2024-01-15T02:08:50;110.40;;;93.20;;
20000;SDS011;10161;41.188;-8.642;2024-01-15T02:11:19;114.67;;;96.03;;
20000;SDS011;10161;41.188;-8.642;2024-01-15T02:13:46;122.10;;;100.10;;
20000;SDS011;10161;41.188;-8.642;2024-01-15T02:16:13;113.43;;;96.27;;
20000;SDS011;10161;41.188;-8.642;2024-01-15T02:18:40;116.10;;;97.90;;
20000;SDS011;10161;41.188;-8.642;2024-01-15T02:21:07;113.10;;;95.67;;
20000;SDS011;10161;41.188;-8.642;2024-01-15T02:23:36;113.63;;;93.50;;
20000;SDS011;10161;41.188;-8.642;2024-01-15T02:26:04;115.83;;;98.70;;
20000;SDS011;10161;41.188;-8.642;2024-01-15T02:28:32;119.63;;;99.30;;
20000;SDS011;10161;41.188;-8.642;2024-01-15T02:30:59;121.20;;;98.03;;
20000;SDS011;10161;41.188;-8.642;2024-01-15T02:33:26;112.87;;;97.80;;
20000;SDS011;10161;41.188;-8.642;2024-01-15T02:35:53;123.17;;;101.27;;
20000;SDS011;10161;41.188;-8.642;2024-01-15T02:38:20;120.10;;;99.67;;
20000;SDS011;10161;41.188;-8.642;2024-01-15T02:40:49;122.53;;;101.50;;
20000;SDS011;10161;41.188;-8.642;2024-01-15T02:43:16;122.20;;;101.57;;
20000;SDS011;10161;41.188;-8.642;2024-01-15T02:45:44;118.03;;;99.20;;
20000;SDS011;10161;41.188;-8.642;2024-01-15T02:48:11;116.10;;;99.13;;
20000;SDS011;10161;41.188;-8.642;2024-01-15T02:50:38;119.90;;;101.00;;
20000;SDS011;10161;41.188;-8.642;2024-01-15T02:53:05;123.93;;;104.87;;
20000;SDS011;10161;41.188;-8.642;2024-01-15T02:55:32;122.50;;;101.07;;
20000;SDS011;10161;41.188;-8.642;2024-01-15T02:58:00;118.77;;;98.97;;
20000;SDS011;10161;41.188;-8.642;2024-01-15T03:00:27;119.70;;;101.03;;
20000;SDS011;10161;41.188;-8.642;2024-01-15T03:02:54;121.10;;;100.47;;
20000;SDS011;10161;41.188;-8.642;2024-01-15T03:05:21;118.70;;;101.60;;
20000;SDS011;10161;41.188;-8.642;2024-01-15T03:07:48;120.03;;;102.17;;
20000;SDS011;10161;41.188;-8.642;2024-01-15T03:10:15;115.87;;;100.60;;
20000;SDS011;10161;41.188;-8.642;2024-01-15T03:12:42;117.43;;;98.63;;
20000;SDS011;10161;41.188;-8.642;2024-01-15T03:15:11;118.40;;;101.23;;
20000;SDS011;10161;41.188;-8.642;2024-01-15T03:17:38;118.30;;;100.20;;
20000;SDS011;10161;41.188;-8.642;2024-01-15T03:20:05;117.67;;;99.27;;
20000;SDS011;10161;41.188;-8.642;2024-01-15T03:22:32;114.50;;;99.17;;
20000;SDS011;10161;41.188;-8.642;2024-01-15T03:24:59;116.07;;;97.37;;
20000;SDS011;10161;41.188;-8.642;2024-01-15T03:27:26;121.20;;;101.87;;
20000;SDS011;10161;41.188;-8.642;2024-01-15T03:29:53;117.03;;;97.10;;
20000;SDS011;10161;41.188;-8.642;2024-01-15T03:32:21;111.57;;;95.50;;
20000;SDS011;10161;41.188;-8.642;2024-01-15T03:34:48;116.87;;;97.07;;
20000;SDS011;10161;41.188;-8.642;2024-01-15T03:37:17;109.07;;;91.23;;
20000;SDS011;10161;41.188;-8.642;2024-01-15T03:39:44;103.90;;;90.63;;
20000;SDS011;10161;41.188;-8.642;2024-01-15T03:42:11;105.53;;;91.53;;
20000;SDS011;10161;41.188;-8.642;2024-01-15T03:44:39;106.50;;;89.67;;
20000;SDS011;10161;41.188;-8.642;2024-01-15T03:47:06;105.50;;;90.57;;
20000;SDS011;10161;41.188;-8.642;2024-01-15T03:49:34;107.00;;;90.33;;
20000;SDS011;10161;41.188;-8.642;2024-01-15T03:52:01;105.50;;;90.50;;
20000;SDS011;10161;41.188;-8.642;2024-01-15T03:54:28;99.83;;;86.67;;
20000;SDS011;10161;41.188;-8.642;2024-01-15T03:56:55;100.67;;;86.73;;
20000;SDS011;10161;41.188;-8.642;2024-01-15T03:59:22;102.70;;;88.03;;
20000;SDS011;10161;41.188;-8.642;2024-01-15T04:01:49;99.33;;;83.87;;
20000;SDS011;10161;41.188;-8.642;2024-01-15T04:04:17;97.37;;;85.17;;
20000;SDS011;10161;41.188;-8.642;2024-01-15T04:06:45;96.70;;;80.80;;
20000;SDS011;10161;41.188;-8.642;2024-01-15T04:09:12;94.07;;;81.93;;
20000;SDS011;10161;41.188;-8.642;2024-01-15T04:11:39;93.37;;;81.27;;
20000;SDS011;10161;41.188;-8.642;2024-01-15T04:14:06;96.67;;;81.10;;
20000;SDS011;10161;41.188;-8.642;2024-01-15T04:16:33;91.00;;;77.77;;
20000;SDS011;10161;41.188;-8.642;2024-01-15T04:19:00;96.73;;;82.37;;
20000;SDS011;10161;41.188;-8.642;2024-01-15T04:21:27;92.10;;;79.37;;
20000;SDS011;10161;41.188;-8.642;2024-01-15T04:23:55;95.00;;;79.37;;
20000;SDS011;10161;41.188;-8.642;2024-01-15T04:26:22;89.80;;;78.30;;
20000;SDS011;10161;41.188;-8.642;2024-01-15T04:28:49;88.80;;;76.87;;
20000;SDS011;10161;41.188;-8.642;2024-01-15T04:31:25;86.63;;;76.80;;
20000;SDS011;10161;41.188;-8.642;2024-01-15T04:33:53;88.33;;;73.43;;
20000;SDS011;10161;41.188;-8.642;2024-01-15T04:36:20;88.47;;;76.50;;
20000;SDS011;10161;41.188;-8.642;2024-01-15T04:38:47;88.73;;;78.00;;
20000;SDS011;10161;41.188;-8.642;2024-01-15T04:41:15;91.53;;;78.60;;
20000;SDS011;10161;41.188;-8.642;2024-01-15T04:43:43;85.27;;;75.83;;
20000;SDS011;10161;41.188;-8.642;2024-01-15T04:46:10;89.40;;;77.50;;
20000;SDS011;10161;41.188;-8.642;2024-01-15T04:48:36;86.70;;;74.33;;
20000;SDS011;10161;41.188;-8.642;2024-01-15T04:51:04;85.80;;;73.80;;
20000;SDS011;10161;41.188;-8.642;2024-01-15T04:53:31;84.87;;;74.30;;
20000;SDS011;10161;41.188;-8.642;2024-01-15T04:55:59;85.03;;;75.57;;
20000;SDS011;10161;41.188;-8.642;2024-01-15T04:58:27;88.30;;;76.00;;
20000;SDS011;10161;41.188;-8.642;2024-01-15T05:00:54;80.63;;;69.80;;
20000;SDS011;10161;41.188;-8.642;2024-01-15T05:03:21;82.87;;;72.90;;
20000;SDS011;10161;41.188;-8.642;2024-01-15T05:05:48;85.10;;;71.10;;
20000;SDS011;10161;41.188;-8.642;2024-01-15T05:08:15;81.90;;;69.27;;
20000;SDS011;10161;41.188;-8.642;2024-01-15T05:10:42;86.30;;;73.57;;
20000;SDS011;10161;41.188;-8.642;2024-01-15T05:13:09;83.17;;;71.90;;
20000;SDS011;10161;41.188;-8.642;2024-01-15T05:15:38;81.13;;;69.87;;
20000;SDS011;10161;41.188;-8.642;2024-01-15T05:18:05;85.33;;;70.90;;
20000;SDS011;10161;41.188;-8.642;2024-01-15T05:20:32;79.73;;;68.37;;
20000;SDS011;10161;41.188;-8.642;2024-01-15T05:22:59;81.13;;;69.70;;
20000;SDS011;10161;41.188;-8.642;2024-01-15T05:25:26;82.40;;;72.30;;
20000;SDS011;10161;41.188;-8.642;2024-01-15T05:27:53;78.20;;;68.17;;
20000;SDS011;10161;41.188;-8.642;2024-01-15T05:30:19;82.50;;;70.67;;
20000;SDS011;10161;41.188;-8.642;2024-01-15T05:32:48;75.20;;;66.90;;
20000;SDS011;10161;41.188;-8.642;2024-01-15T05:35:15;82.70;;;70.30;;
20000;SDS011;10161;41.188;-8.642;2024-01-15T05:37:43;75.73;;;66.23;;
20000;SDS011;10161;41.188;-8.642;2024-01-15T05:40:11;75.97;;;67.43;;
20000;SDS011;10161;41.188;-8.642;2024-01-15T05:42:38;77.10;;;68.03;;
20000;SDS011;10161;41.188;-8.642;2024-01-15T05:45:05;74.17;;;66.00;;
20000;SDS011;10161;41.188;-8.642;2024-01-15T05:47:33;79.67;;;68.87;;
20000;SDS011;10161;41.188;-8.642;2024-01-15T05:50:01;76.03;;;65.80;;
20000;SDS011;10161;41.188;-8.642;2024-01-15T05:52:28;74.13;;;66.00;;
20000;SDS011;10161;41.188;-8.642;2024-01-15T05:54:55;78.00;;;67.60;;
20000;SDS011;10161;41.188;-8.642;2024-01-15T05:57:22;73.03;;;65.03;;
20000;SDS011;10161;41.188;-8.642;2024-01-15T05:59:49;74.73;;;66.03;;
20000;SDS011;10161;41.188;-8.642;2024-01-15T06:02:16;76.70;;;67.00;;
20000;SDS011;10161;41.188;-8.642;2024-01-15T06:04:43;77.23;;;68.27;;
20000;SDS011;10161;41.188;-8.642;2024-01-15T06:07:12;73.70;;;65.60;;
20000;SDS011;10161;41.188;-8.642;2024-01-15T06:09:39;77.07;;;66.60;;
20000;SDS011;10161;41.188;-8.642;2024-01-15T06:12:06;72.87;;;65.00;;
20000;SDS011;10161;41.188;-8.642;2024-01-15T06:14:34;71.87;;;63.73;;
20000;SDS011;10161;41.188;-8.642;2024-01-15T06:17:01;73.03;;;65.03;;
20000;SDS011;10161;41.188;-8.642;2024-01-15T06:19:28;76.87;;;65.77;;
20000;SDS011;10161;41.188;-8.642;2024-01-15T06:21:54;75.27;;;66.20;;
20000;SDS011;10161;41.188;-8.642;2024-01-15T06:24:23;72.40;;;63.17;;
20000;SDS011;10161;41.188;-8.642;2024-01-15T06:26:50;76.13;;;64.10;;
20000;SDS011;10161;41.188;-8.642;2024-01-15T06:29:17;72.43;;;64.53;;
20000;SDS011;10161;41.188;-8.642;2024-01-15T06:31:43;74.93;;;64.23;;
20000;SDS011;10161;41.188;-8.642;2024-01-15T06:34:10;71.57;;;63.67;;
20000;SDS011;10161;41.188;-8.642;2024-01-15T06:36:37;71.47;;;63.47;;
20000;SDS011;10161;41.188;-8.642;2024-01-15T06:39:04;71.90;;;63.20;;
20000;SDS011;10161;41.188;-8.642;2024-01-15T06:41:33;71.73;;;63.53;;
20000;SDS011;10161;41.188;-8.642;2024-01-15T06:44:00;71.53;;;63.73;;
20000;SDS011;10161;41.188;-8.642;2024-01-15T06:46:26;72.53;;;64.53;;
20000;SDS011;10161;41.188;-8.642;2024-01-15T06:48:53;72.07;;;64.10;;
20000;SDS011;10161;41.188;-8.642;2024-01-15T06:51:20;70.80;;;63.10;;
20000;SDS011;10161;41.188;-8.642;2024-01-15T06:53:47;71.83;;;63.97;;
20000;SDS011;10161;41.188;-8.642;2024-01-15T06:56:14;69.10;;;61.60;;
20000;SDS011;10161;41.188;-8.642;2024-01-15T06:58:42;68.90;;;61.50;;
20000;SDS011;10161;41.188;-8.642;2024-01-15T07:01:09;63.43;;;56.37;;
20000;SDS011;10161;41.188;-8.642;2024-01-15T07:03:36;62.73;;;56.00;;
20000;SDS011;10161;41.188;-8.642;2024-01-15T07:06:04;60.20;;;53.70;;
20000;SDS011;10161;41.188;-8.642;2024-01-15T07:08:31;58.17;;;51.80;;
20000;SDS011;10161;41.188;-8.642;2024-01-15T07:10:58;52.40;;;46.73;;
20000;SDS011;10161;41.188;-8.642;2024-01-15T07:13:25;50.87;;;45.33;;
20000;SDS011;10161;41.188;-8.642;2024-01-15T07:15:54;48.83;;;43.07;;
20000;SDS011;10161;41.188;-8.642;2024-01-15T07:18:20;49.20;;;43.27;;
20000;SDS011;10161;41.188;-8.642;2024-01-15T07:20:48;44.77;;;39.97;;
20000;SDS011;10161;41.188;-8.642;2024-01-15T07:23:15;42.40;;;38.00;;
20000;SDS011;10161;41.188;-8.642;2024-01-15T07:25:42;41.43;;;36.60;;
20000;SDS011;10161;41.188;-8.642;2024-01-15T07:28:09;40.30;;;35.90;;
20000;SDS011;10161;41.188;-8.642;2024-01-15T07:30:36;37.60;;;33.77;;
20000;SDS011;10161;41.188;-8.642;2024-01-15T07:33:05;37.43;;;33.37;;
20000;SDS011;10161;41.188;-8.642;2024-01-15T07:35:32;35.17;;;31.47;;
20000;SDS011;10161;41.188;-8.642;2024-01-15T07:37:59;33.47;;;29.83;;
20000;SDS011;10161;41.188;-8.642;2024-01-15T07:40:26;32.60;;;29.10;;
20000;SDS011;10161;41.188;-8.642;2024-01-15T07:42:53;31.80;;;28.50;;
20000;SDS011;10161;41.188;-8.642;2024-01-15T07:45:20;29.37;;;26.17;;
20000;SDS011;10161;41.188;-8.642;2024-01-15T07:47:47;26.20;;;23.60;;
20000;SDS011;10161;41.188;-8.642;2024-01-15T07:50:15;28.00;;;25.00;;
20000;SDS011;10161;41.188;-8.642;2024-01-15T07:52:42;25.83;;;23.20;;
20000;SDS011;10161;41.188;-8.642;2024-01-15T07:55:09;25.10;;;22.40;;
20000;SDS011;10161;41.188;-8.642;2024-01-15T07:57:36;24.87;;;22.27;;
20000;SDS011;10161;41.188;-8.642;2024-01-15T08:00:03;23.90;;;21.20;;
20000;SDS011;10161;41.188;-8.642;2024-01-15T08:02:32;21.13;;;19.03;;
20000;SDS011;10161;41.188;-8.642;2024-01-15T08:05:01;21.47;;;19.30;;
20000;SDS011;10161;41.188;-8.642;2024-01-15T08:07:30;20.87;;;18.77;;
20000;SDS011;10161;41.188;-8.642;2024-01-15T08:09:57;19.57;;;17.50;;
20000;SDS011;10161;41.188;-8.642;2024-01-15T08:12:24;19.33;;;17.40;;
20000;SDS011;10161;41.188;-8.642;2024-01-15T08:14:51;18.67;;;16.77;;
20000;SDS011;10161;41.188;-8.642;2024-01-15T08:17:18;18.33;;;16.50;;
20000;SDS011;10161;41.188;-8.642;2024-01-15T08:19:44;18.63;;;15.47;;
20000;SDS011;10161;41.188;-8.642;2024-01-15T08:22:11;16.23;;;14.53;;
20000;SDS011;10161;41.188;-8.642;2024-01-15T08:24:40;14.27;;;12.77;;
20000;SDS011;10161;41.188;-8.642;2024-01-15T08:27:07;14.40;;;12.97;;
20000;SDS011;10161;41.188;-8.642;2024-01-15T08:29:34;13.63;;;12.23;;
20000;SDS011;10161;41.188;-8.642;2024-01-15T08:32:01;13.60;;;12.13;;
20000;SDS011;10161;41.188;-8.642;2024-01-15T08:34:28;12.30;;;11.10;;
20000;SDS011;10161;41.188;-8.642;2024-01-15T08:36:56;11.83;;;10.50;;
20000;SDS011;10161;41.188;-8.642;2024-01-15T08:39:23;10.57;;;9.47;;
20000;SDS011;10161;41.188;-8.642;2024-01-15T08:41:51;12.03;;;10.83;;
20000;SDS011;10161;41.188;-8.642;2024-01-15T08:44:18;10.30;;;9.30;;
20000;SDS011;10161;41.188;-8.642;2024-01-15T08:46:45;9.07;;;8.17;;
20000;SDS011;10161;41.188;-8.642;2024-01-15T08:49:12;8.90;;;8.00;;
20000;SDS011;10161;41.188;-8.642;2024-01-15T08:51:39;9.00;;;8.10;;
20000;SDS011;10161;41.188;-8.642;2024-01-15T08:54:06;8.77;;;7.97;;
20000;SDS011;10161;41.188;-8.642;2024-01-15T08:56:34;9.13;;;8.23;;
20000;SDS011;10161;41.188;-8.642;2024-01-15T08:59:02;7.97;;;7.17;;
20000;SDS011;10161;41.188;-8.642;2024-01-15T09:01:29;8.80;;;7.90;;
20000;SDS011;10161;41.188;-8.642;2024-01-15T09:03:56;8.17;;;7.00;;
20000;SDS011;10161;41.188;-8.642;2024-01-15T09:06:23;7.90;;;7.10;;
20000;SDS011;10161;41.188;-8.642;2024-01-15T09:08:50;7.23;;;6.53;;
20000;SDS011;10161;41.188;-8.642;2024-01-15T09:11:17;8.17;;;6.83;;
20000;SDS011;10161;41.188;-8.642;2024-01-15T09:13:44;7.00;;;6.40;;
20000;SDS011;10161;41.188;-8.642;2024-01-15T09:16:12;7.43;;;6.63;;
20000;SDS011;10161;41.188;-8.642;2024-01-15T09:18:39;7.23;;;6.53;;
20000;SDS011;10161;41.188;-8.642;2024-01-15T09:21:06;6.40;;;5.80;;
20000;SDS011;10161;41.188;-8.642;2024-01-15T09:23:33;6.73;;;6.07;;
20000;SDS011;10161;41.188;-8.642;2024-01-15T09:26:00;6.10;;;5.60;;
20000;SDS011;10161;41.188;-8.642;2024-01-15T09:28:27;5.77;;;5.20;;
20000;SDS011;10161;41.188;-8.642;2024-01-15T09:30:54;5.87;;;5.27;;
20000;SDS011;10161;41.188;-8.642;2024-01-15T09:33:22;5.37;;;4.87;;
20000;SDS011;10161;41.188;-8.642;2024-01-15T09:35:49;4.90;;;4.50;;
20000;SDS011;10161;41.188;-8.642;2024-01-15T09:38:16;4.40;;;4.03;;
20000;SDS011;10161;41.188;-8.642;2024-01-15T09:40:45;5.53;;;5.00;;
20000;SDS011;10161;41.188;-8.642;2024-01-15T09:43:12;5.23;;;4.80;;
20000;SDS011;10161;41.188;-8.642;2024-01-15T09:45:39;5.10;;;4.17;;
20000;SDS011;10161;41.188;-8.642;2024-01-15T09:48:06;5.17;;;4.67;;
20000;SDS011;10161;41.188;-8.642;2024-01-15T09:50:35;4.40;;;4.00;;
20000;SDS011;10161;41.188;-8.642;2024-01-15T09:53:02;4.47;;;4.07;;
20000;SDS011;10161;41.188;-8.642;2024-01-15T09:55:29;3.97;;;3.67;;
20000;SDS011;10161;41.188;-8.642;2024-01-15T09:57:57;4.13;;;3.77;;
20000;SDS011;10161;41.188;-8.642;2024-01-15T10:00:26;3.50;;;3.20;;
20000;SDS011;10161;41.188;-8.642;2024-01-15T10:02:54;4.23;;;3.83;;
20000;SDS011;10161;41.188;-8.642;2024-01-15T10:05:22;3.60;;;3.30;;
20000;SDS011;10161;41.188;-8.642;2024-01-15T10:07:51;3.40;;;3.10;;
20000;SDS011;10161;41.188;-8.642;2024-01-15T10:10:18;3.93;;;3.40;;
20000;SDS011;10161;41.188;-8.642;2024-01-15T10:12:45;3.67;;;3.37;;
20000;SDS011;10161;41.188;-8.642;2024-01-15T10:15:12;3.27;;;3.00;;
20000;SDS011;10161;41.188;-8.642;2024-01-15T10:17:38;4.37;;;3.97;;
20000;SDS011;10161;41.188;-8.642;2024-01-15T10:20:07;4.30;;;3.87;;
20000;SDS011;10161;41.188;-8.642;2024-01-15T10:22:35;4.23;;;3.83;;
20000;SDS011;10161;41.188;-8.642;2024-01-15T10:25:06;4.70;;;4.30;;
20000;SDS011;10161;41.188;-8.642;2024-01-15T10:27:34;4.27;;;3.87;;
20000;SDS011;10161;41.188;-8.642;2024-01-15T10:30:01;4.30;;;3.90;;
20000;SDS011;10161;41.188;-8.642;2024-01-15T10:32:28;4.63;;;4.23;;
20000;SDS011;10161;41.188;-8.642;2024-01-15T10:34:55;4.33;;;3.93;;
20000;SDS011;10161;41.188;-8.642;2024-01-15T10:37:23;4.10;;;3.80;;
20000;SDS011;10161;41.188;-8.642;2024-01-15T10:39:51;4.20;;;3.80;;
20000;SDS011;10161;41.188;-8.642;2024-01-15T10:42:19;5.23;;;4.73;;
20000;SDS011;10161;41.188;-8.642;2024-01-15T10:44:46;4.67;;;4.27;;
20000;SDS011;10161;41.188;-8.642;2024-01-15T10:47:13;4.47;;;4.07;;
20000;SDS011;10161;41.188;-8.642;2024-01-15T10:49:40;4.20;;;3.80;;
20000;SDS011;10161;41.188;-8.642;2024-01-15T10:52:07;3.67;;;3.37;;
20000;SDS011;10161;41.188;-8.642;2024-01-15T10:54:35;3.83;;;3.53;;
20000;SDS011;10161;41.188;-8.642;2024-01-15T10:57:04;4.00;;;3.60;;
20000;SDS011;10161;41.188;-8.642;2024-01-15T10:59:33;3.60;;;3.30;;
20000;SDS011;10161;41.188;-8.642;2024-01-15T11:02:00;3.50;;;3.20;;
20000;SDS011;10161;41.188;-8.642;2024-01-15T11:04:27;3.60;;;3.30;;
20000;SDS011;10161;41.188;-8.642;2024-01-15T11:06:55;3.57;;;3.27;;
20000;SDS011;10161;41.188;-8.642;2024-01-15T11:09:22;3.80;;;3.40;;
20000;SDS011;10161;41.188;-8.642;2024-01-15T11:11:51;3.30;;;3.00;;
20000;SDS011;10161;41.188;-8.642;2024-01-15T11:14:38;2.80;;;2.60;;
20000;SDS011;10161;41.188;-8.642;2024-01-15T11:17:05;3.70;;;3.40;;
20000;SDS011;10161;41.188;-8.642;2024-01-15T11:19:35;3.37;;;3.07;;
20000;SDS011;10161;41.188;-8.642;2024-01-15T11:22:05;3.20;;;3.00;;
20000;SDS011;10161;41.188;-8.642;2024-01-15T11:24:34;3.90;;;3.60;;
20000;SDS011;10161;41.188;-8.642;2024-01-15T11:27:02;4.63;;;4.23;;
20000;SDS011;10161;41.188;-8.642;2024-01-15T11:29:30;3.87;;;3.47;;
20000;SDS011;10161;41.188;-8.642;2024-01-15T11:32:01;3.43;;;3.13;;
20000;SDS011;10161;41.188;-8.642;2024-01-15T11:37:23;3.77;;;3.47;;
20000;SDS011;10161;41.188;-8.642;2024-01-15T11:39:50;4.10;;;3.70;;
20000;SDS011;10161;41.188;-8.642;2024-01-15T11:42:20;4.37;;;3.97;;
20000;SDS011;10161;41.188;-8.642;2024-01-15T11:44:47;4.87;;;4.37;;
20000;SDS011;10161;41.188;-8.642;2024-01-15T11:47:16;4.10;;;3.70;;
20000;SDS011;10161;41.188;-8.642;2024-01-15T11:50:06;3.30;;;3.00;;
20000;SDS011;10161;41.188;-8.642;2024-01-15T11:52:34;3.70;;;3.40;;
20000;SDS011;10161;41.188;-8.642;2024-01-15T11:55:06;3.60;;;3.27;;
20000;SDS011;10161;41.188;-8.642;2024-01-15T11:57:40;3.80;;;3.50;;
20000;SDS011;10161;41.188;-8.642;2024-01-15T12:00:09;3.67;;;3.37;;
20000;SDS011;10161;41.188;-8.642;2024-01-15T12:02:39;3.73;;;3.33;;
20000;SDS011;10161;41.188;-8.642;2024-01-15T12:05:07;3.90;;;3.50;;
20000;SDS011;10161;41.188;-8.642;2024-01-15T12:07:34;4.10;;;3.70;;
20000;SDS011;10161;41.188;-8.642;2024-01-15T12:10:01;3.50;;;3.20;;
20000;SDS011;10161;41.188;-8.642;2024-01-15T12:12:31;3.10;;;2.90;;
20000;SDS011;10161;41.188;-8.642;2024-01-15T12:15:06;3.30;;;3.00;;
20000;SDS011;10161;41.188;-8.642;2024-01-15T12:17:34;3.50;;;3.20;;
20000;SDS011;10161;41.188;-8.642;2024-01-15T12:20:03;3.47;;;3.17;;
20000;SDS011;10161;41.188;-8.642;2024-01-15T12:22:30;3.20;;;3.00;;
20000;SDS011;10161;41.188;-8.642;2024-01-15T12:24:57;3.40;;;3.10;;
20000;SDS011;10161;41.188;-8.642;2024-01-15T12:27:24;2.97;;;2.77;;
20000;SDS011;10161;41.188;-8.642;2024-01-15T12:29:52;2.87;;;2.67;;
20000;SDS011;10161;41.188;-8.642;2024-01-15T12:32:19;2.80;;;2.60;;
20000;SDS011;10161;41.188;-8.642;2024-01-15T12:34:48;2.53;;;2.33;;
20000;SDS011;10161;41.188;-8.642;2024-01-15T12:37:19;2.80;;;2.60;;
20000;SDS011;10161;41.188;-8.642;2024-01-15T12:39:46;3.40;;;3.10;;
20000;SDS011;10161;41.188;-8.642;2024-01-15T12:42:13;2.93;;;2.67;;
20000;SDS011;10161;41.188;-8.642;2024-01-15T12:44:42;3.20;;;2.90;;
20000;SDS011;10161;41.188;-8.642;2024-01-15T12:47:09;3.37;;;3.07;;
20000;SDS011;10161;41.188;-8.642;2024-01-15T12:49:36;3.17;;;2.87;;
20000;SDS011;10161;41.188;-8.642;2024-01-15T12:52:07;2.93;;;2.73;;
20000;SDS011;10161;41.188;-8.642;2024-01-15T12:54:36;2.90;;;2.70;;
20000;SDS011;10161;41.188;-8.642;2024-01-15T12:57:03;2.77;;;2.57;;
20000;SDS011;10161;41.188;-8.642;2024-01-15T12:59:30;2.90;;;2.70;;
20000;SDS011;10161;41.188;-8.642;2024-01-15T13:01:57;2.90;;;2.70;;
20000;SDS011;10161;41.188;-8.642;2024-01-15T13:04:24;2.83;;;2.63;;
20000;SDS011;10161;41.188;-8.642;2024-01-15T13:06:51;2.70;;;2.50;;
20000;SDS011;10161;41.188;-8.642;2024-01-15T13:09:18;3.27;;;3.00;;
20000;SDS011;10161;41.188;-8.642;2024-01-15T13:11:46;3.07;;;2.77;;
20000;SDS011;10161;41.188;-8.642;2024-01-15T13:14:13;3.73;;;3.37;;
20000;SDS011;10161;41.188;-8.642;2024-01-15T13:16:41;2.90;;;2.60;;
20000;SDS011;10161;41.188;-8.642;2024-01-15T13:19:08;2.80;;;2.60;;
20000;SDS011;10161;41.188;-8.642;2024-01-15T13:21:36;2.77;;;2.57;;
20000;SDS011;10161;41.188;-8.642;2024-01-15T13:24:03;2.90;;;2.70;;
20000;SDS011;10161;41.188;-8.642;2024-01-15T13:26:31;2.63;;;2.43;;
20000;SDS011;10161;41.188;-8.642;2024-01-15T13:29:00;2.43;;;2.23;;
20000;SDS011;10161;41.188;-8.642;2024-01-15T13:31:27;3.10;;;2.80;;
20000;SDS011;10161;41.188;-8.642;2024-01-15T13:33:54;2.30;;;2.10;;
20000;SDS011;10161;41.188;-8.642;2024-01-15T13:36:21;2.40;;;2.20;;
20000;SDS011;10161;41.188;-8.642;2024-01-15T13:38:48;2.47;;;2.27;;
20000;SDS011;10161;41.188;-8.642;2024-01-15T13:41:18;2.37;;;2.17;;
20000;SDS011;10161;41.188;-8.642;2024-01-15T13:46:16;2.30;;;2.07;;
20000;SDS011;10161;41.188;-8.642;2024-01-15T13:48:43;2.20;;;2.00;;
20000;SDS011;10161;41.188;-8.642;2024-01-15T13:51:10;2.50;;;2.30;;
20000;SDS011;10161;41.188;-8.642;2024-01-15T13:53:37;1.57;;;1.47;;
20000;SDS011;10161;41.188;-8.642;2024-01-15T13:56:05;1.93;;;1.77;;
20000;SDS011;10161;41.188;-8.642;2024-01-15T13:58:32;2.10;;;1.90;;
20000;SDS011;10161;41.188;-8.642;2024-01-15T14:00:59;1.97;;;1.73;;
20000;SDS011;10161;41.188;-8.642;2024-01-15T14:03:30;1.87;;;1.77;;
20000;SDS011;10161;41.188;-8.642;2024-01-15T14:05:56;2.30;;;2.10;;
20000;SDS011;10161;41.188;-8.642;2024-01-15T14:08:23;1.97;;;1.80;;
20000;SDS011;10161;41.188;-8.642;2024-01-15T14:10:50;1.90;;;1.80;;
20000;SDS011;10161;41.188;-8.642;2024-01-15T14:13:18;1.90;;;1.80;;
20000;SDS011;10161;41.188;-8.642;2024-01-15T14:15:45;2.17;;;1.97;;
20000;SDS011;10161;41.188;-8.642;2024-01-15T14:18:13;2.17;;;1.97;;
20000;SDS011;10161;41.188;-8.642;2024-01-15T14:20:42;1.80;;;1.70;;
20000;SDS011;10161;41.188;-8.642;2024-01-15T14:23:09;2.20;;;2.00;;